createdAt,value
2023-03-17T00:01:18.868Z,6.80
2023-03-17T00:03:49.198Z,6.80
2023-03-17T00:06:19.422Z,6.80
2023-03-17T00:08:47.285Z,6.80
2023-03-17T00:11:17.175Z,6.80
2023-03-17T00:13:47.015Z,6.80
2023-03-17T00:16:18.492Z,6.80
2023-03-17T00:18:46.589Z,6.80
2023-03-17T00:21:16.349Z,6.70
2023-03-17T00:23:48.217Z,6.70
2023-03-17T00:26:16.060Z,6.70
2023-03-17T00:28:44.627Z,6.70
2023-03-17T00:31:15.461Z,6.70
2023-03-17T00:33:44.383Z,6.70
2023-03-17T00:36:17.885Z,6.70
2023-03-17T00:38:45.930Z,6.70
2023-03-17T00:41:14.259Z,6.70
2023-03-17T00:43:42.782Z,6.70
2023-03-17T00:46:16.574Z,6.60
2023-03-17T00:48:44.715Z,6.60
2023-03-17T00:51:13.268Z,6.60
2023-03-17T00:53:41.343Z,6.60
2023-03-17T00:56:14.304Z,6.60
2023-03-17T00:58:42.698Z,6.60
2023-03-17T01:01:10.923Z,6.60
2023-03-17T01:03:40.420Z,6.60
2023-03-17T01:06:11.792Z,6.60
2023-03-17T01:08:40.832Z,6.60
2023-03-17T01:11:14.597Z,6.60
2023-03-17T01:13:42.354Z,6.50
2023-03-17T01:16:11.342Z,6.50
2023-03-17T01:18:41.118Z,6.50
2023-03-17T01:21:09.438Z,6.50
2023-03-17T01:23:37.856Z,6.50
2023-03-17T01:26:06.510Z,6.50
2023-03-17T01:28:35.151Z,6.50
2023-03-17T01:31:03.391Z,6.50
2023-03-17T01:33:31.156Z,6.50
2023-03-17T01:36:00.304Z,6.50
2023-03-17T01:38:28.077Z,6.50
2023-03-17T01:40:56.648Z,6.50
2023-03-17T01:43:27.495Z,6.50
2023-03-17T01:46:27.344Z,6.50
2023-03-17T01:49:04.106Z,6.40
2023-03-17T01:51:37.699Z,6.40
2023-03-17T01:54:09.410Z,6.40
2023-03-17T01:56:39.273Z,6.40
2023-03-17T01:59:10.223Z,6.40
2023-03-17T02:01:42.100Z,6.30
2023-03-17T02:04:11.546Z,6.30
2023-03-17T02:06:56.853Z,6.30
2023-03-17T02:09:25.092Z,6.30
2023-03-17T02:11:52.868Z,6.30
2023-03-17T02:14:20.604Z,6.30
2023-03-17T02:16:49.801Z,6.20
2023-03-17T02:19:18.108Z,6.20
2023-03-17T02:21:48.128Z,6.20
2023-03-17T02:24:26.292Z,6.20
2023-03-17T02:26:56.261Z,6.20
2023-03-17T02:29:24.905Z,6.20
2023-03-17T02:31:53.363Z,6.20
2023-03-17T02:34:21.114Z,6.20
2023-03-17T02:36:50.279Z,6.20
2023-03-17T02:39:18.058Z,6.20
2023-03-17T02:41:46.077Z,6.10
2023-03-17T02:44:13.803Z,6.10
2023-03-17T02:46:41.524Z,6.10
2023-03-17T02:49:09.850Z,6.10
2023-03-17T02:51:37.727Z,6.00
2023-03-17T02:54:06.886Z,6.00
2023-03-17T02:56:34.810Z,6.00
2023-03-17T02:59:02.563Z,6.00
2023-03-17T03:01:30.888Z,6.00
2023-03-17T03:03:58.789Z,6.00
2023-03-17T03:06:26.621Z,6.00
2023-03-17T03:08:54.495Z,6.00
2023-03-17T03:11:23.646Z,6.00
2023-03-17T03:13:51.857Z,5.90
2023-03-17T03:16:19.720Z,6.00
2023-03-17T03:18:47.643Z,5.90
2023-03-17T03:21:15.400Z,5.90
2023-03-17T03:23:43.242Z,5.90
2023-03-17T03:26:11.014Z,5.90
2023-03-17T03:28:40.144Z,5.80
2023-03-17T03:31:08.055Z,5.80
2023-03-17T03:33:36.408Z,5.80
2023-03-17T03:36:04.337Z,5.70
2023-03-17T03:38:32.099Z,5.70
2023-03-17T03:40:59.832Z,5.70
2023-03-17T03:43:27.671Z,5.70
2023-03-17T03:45:56.760Z,5.70
2023-03-17T03:48:24.752Z,5.70
2023-03-17T03:50:56.133Z,5.60
2023-03-17T03:53:23.978Z,5.60
2023-03-17T03:55:51.704Z,5.60
2023-03-17T03:58:19.438Z,5.60
2023-03-17T04:00:47.587Z,5.60
2023-03-17T04:03:17.144Z,5.50
2023-03-17T04:05:44.957Z,5.50
2023-03-17T04:08:12.803Z,5.50
2023-03-17T04:10:40.974Z,5.50
2023-03-17T04:13:08.851Z,5.50
2023-03-17T04:15:36.583Z,5.50
2023-03-17T04:18:05.170Z,5.50
2023-03-17T04:20:34.253Z,5.50
2023-03-17T04:23:02.148Z,5.50
2023-03-17T04:25:29.872Z,5.50
2023-03-17T04:27:57.680Z,5.50
2023-03-17T04:30:25.427Z,5.50
2023-03-17T04:32:53.204Z,5.50
2023-03-17T04:35:22.599Z,5.50
2023-03-17T04:37:51.908Z,5.50
2023-03-17T04:40:20.630Z,5.50
2023-03-17T04:42:48.573Z,5.50
2023-03-17T04:45:16.644Z,5.50
2023-03-17T04:47:46.072Z,5.50
2023-03-17T04:50:15.146Z,5.40
2023-03-17T04:52:43.087Z,5.40
2023-03-17T04:55:12.778Z,5.40
2023-03-17T04:57:40.545Z,5.40
2023-03-17T05:00:09.760Z,5.40
2023-03-17T05:02:38.805Z,5.40
2023-03-17T05:05:07.383Z,5.40
2023-03-17T05:07:35.116Z,5.40
2023-03-17T05:10:03.003Z,5.40
2023-03-17T05:12:32.248Z,5.30
2023-03-17T05:15:00.067Z,5.30
2023-03-17T05:17:28.090Z,5.40
2023-03-17T05:19:55.865Z,5.40
2023-03-17T05:22:23.658Z,5.40
2023-03-17T05:24:51.461Z,5.30
2023-03-17T05:27:19.233Z,5.40
2023-03-17T05:29:48.671Z,5.40
2023-03-17T05:32:16.408Z,5.40
2023-03-17T05:34:44.979Z,5.40
2023-03-17T05:37:13.016Z,5.40
2023-03-17T05:39:40.898Z,5.40
2023-03-17T05:42:09.132Z,5.40
2023-03-17T05:44:36.887Z,5.40
2023-03-17T05:47:07.941Z,5.40
2023-03-17T05:49:35.704Z,5.40
2023-03-17T05:52:03.500Z,5.40
2023-03-17T05:54:31.201Z,5.40
2023-03-17T05:56:58.923Z,5.40
2023-03-17T05:59:26.843Z,5.40
2023-03-17T06:01:54.583Z,5.40
2023-03-17T06:04:23.633Z,5.40
2023-03-17T06:06:51.421Z,5.40
2023-03-17T06:09:19.169Z,5.40
2023-03-17T06:11:46.886Z,5.50
2023-03-17T06:14:14.621Z,5.50
2023-03-17T06:16:42.324Z,5.50
2023-03-17T06:19:10.134Z,5.50
2023-03-17T06:21:39.370Z,5.60
2023-03-17T06:24:08.533Z,5.60
2023-03-17T06:26:37.096Z,5.60
2023-03-17T06:29:05.185Z,5.70
2023-03-17T06:31:33.022Z,5.70
2023-03-17T06:34:00.819Z,5.70
2023-03-17T06:36:28.574Z,5.80
2023-03-17T06:38:57.844Z,5.80
2023-03-17T06:41:25.905Z,5.80
2023-03-17T06:43:53.993Z,5.90
2023-03-17T06:46:22.725Z,5.90
2023-03-17T06:48:50.598Z,6.00
2023-03-17T06:51:18.312Z,6.00
2023-03-17T06:53:46.086Z,6.10
2023-03-17T06:56:29.213Z,6.10
2023-03-17T06:58:57.555Z,6.20
2023-03-17T07:01:25.476Z,6.30
2023-03-17T07:03:53.431Z,6.30
2023-03-17T07:06:23.215Z,6.40
2023-03-17T07:08:52.198Z,6.40
2023-03-17T07:11:23.472Z,6.50
2023-03-17T07:13:51.924Z,6.50
2023-03-17T07:16:21.989Z,6.50
2023-03-17T07:18:50.530Z,6.60
2023-03-17T07:21:18.514Z,6.60
2023-03-17T07:23:46.342Z,6.60
2023-03-17T07:26:14.847Z,6.70
2023-03-17T07:28:44.572Z,6.70
2023-03-17T07:31:14.241Z,6.80
2023-03-17T07:33:42.476Z,6.80
2023-03-17T07:36:10.807Z,6.90
2023-03-17T07:38:38.697Z,7.00
2023-03-17T07:41:09.749Z,7.10
2023-03-17T07:43:38.494Z,7.10
2023-03-17T07:46:08.522Z,7.20
2023-03-17T07:48:40.672Z,7.30
2023-03-17T07:51:11.713Z,7.30
2023-03-17T07:53:39.504Z,7.40
2023-03-17T07:56:07.876Z,7.50
2023-03-17T07:58:35.763Z,7.60
2023-03-17T08:01:03.766Z,7.60
2023-03-17T08:03:32.921Z,7.70
2023-03-17T08:06:00.726Z,7.80
2023-03-17T08:08:29.499Z,7.90
2023-03-17T08:11:03.412Z,8.00
2023-03-17T08:13:31.221Z,8.10
2023-03-17T08:15:59.023Z,8.10
2023-03-17T08:18:27.017Z,8.20
2023-03-17T08:20:56.200Z,8.30
2023-03-17T08:23:25.524Z,8.40
2023-03-17T08:25:57.794Z,8.40
2023-03-17T08:28:25.762Z,8.50
2023-03-17T08:30:53.614Z,8.60
2023-03-17T08:33:22.164Z,8.70
2023-03-17T08:35:49.955Z,8.70
2023-03-17T08:38:19.070Z,8.80
2023-03-17T08:40:46.822Z,8.90
2023-03-17T08:43:14.533Z,9.00
2023-03-17T08:45:43.236Z,9.10
2023-03-17T08:48:10.972Z,9.20
2023-03-17T08:50:38.892Z,9.30
2023-03-17T08:53:08.341Z,9.30
2023-03-17T08:55:38.520Z,9.40
2023-03-17T08:58:06.243Z,9.50
2023-03-17T09:00:34.503Z,9.60
2023-03-17T09:03:03.446Z,9.70
2023-03-17T09:05:31.928Z,9.80
2023-03-17T09:07:59.943Z,9.90
2023-03-17T09:10:29.020Z,10.10
2023-03-17T09:13:02.814Z,10.20
2023-03-17T09:15:31.208Z,10.30
2023-03-17T09:17:59.058Z,10.40
2023-03-17T09:20:27.120Z,10.40
2023-03-17T09:22:56.339Z,10.50
2023-03-17T09:25:24.191Z,10.60
2023-03-17T09:27:52.221Z,10.70
2023-03-17T09:30:21.769Z,10.70
2023-03-17T09:32:49.814Z,10.80
2023-03-17T09:35:17.797Z,10.90
2023-03-17T09:37:46.209Z,10.90
2023-03-17T09:40:17.560Z,10.90
2023-03-17T09:42:55.489Z,11.00
2023-03-17T09:45:32.651Z,11.10
2023-03-17T09:48:39.822Z,11.10
2023-03-17T09:51:10.236Z,11.20
2023-03-17T09:53:43.908Z,11.30
2023-03-17T09:56:15.431Z,11.40
2023-03-17T09:58:51.261Z,11.40
2023-03-17T10:01:21.415Z,11.50
2023-03-17T10:03:50.353Z,11.60
2023-03-17T10:06:34.435Z,11.70
2023-03-17T10:09:09.356Z,11.70
2023-03-17T10:11:42.262Z,11.80
2023-03-17T10:14:33.477Z,11.80
2023-03-17T10:17:13.539Z,11.90
2023-03-17T10:19:45.941Z,12.00
2023-03-17T10:22:21.596Z,12.10
2023-03-17T10:24:52.690Z,12.10
2023-03-17T10:27:21.535Z,12.20
2023-03-17T10:29:49.362Z,12.20
2023-03-17T10:32:18.497Z,12.30
2023-03-17T10:34:48.532Z,12.40
2023-03-17T10:37:21.070Z,12.50
2023-03-17T10:39:50.353Z,12.60
2023-03-17T10:42:23.707Z,12.70
2023-03-17T10:44:54.927Z,12.80
2023-03-17T10:47:29.798Z,12.80
2023-03-17T10:49:59.123Z,12.90
2023-03-17T10:52:30.093Z,12.90
2023-03-17T10:55:02.554Z,13.00
2023-03-17T10:57:31.113Z,13.00
2023-03-17T11:00:05.099Z,13.00
2023-03-17T11:02:44.066Z,13.10
2023-03-17T11:05:20.342Z,13.10
2023-03-17T11:07:48.141Z,13.20
2023-03-17T11:10:20.279Z,13.30
2023-03-17T11:12:51.052Z,13.30
2023-03-17T11:15:20.139Z,13.30
2023-03-17T11:17:55.822Z,13.40
2023-03-17T11:20:36.001Z,13.40
2023-03-17T11:23:07.168Z,13.40
2023-03-17T11:25:38.072Z,13.40
2023-03-17T11:28:19.272Z,13.50
2023-03-17T11:30:55.542Z,13.50
2023-03-17T11:33:35.688Z,13.50
2023-03-17T11:36:13.728Z,13.50
2023-03-17T11:38:50.609Z,13.50
2023-03-17T11:41:34.756Z,13.60
2023-03-17T11:44:28.846Z,13.60
2023-03-17T11:47:03.025Z,13.60
2023-03-17T11:49:37.986Z,13.60
2023-03-17T11:52:12.155Z,13.60
2023-03-17T11:54:47.523Z,13.70
2023-03-17T11:57:21.717Z,13.70
2023-03-17T11:59:55.195Z,13.80
2023-03-17T12:02:30.560Z,13.80
2023-03-17T12:05:04.991Z,13.90
2023-03-17T12:07:36.555Z,14.00
2023-03-17T12:10:17.059Z,14.10
2023-03-17T12:12:50.886Z,14.20
2023-03-17T12:15:23.945Z,14.30
2023-03-17T12:17:56.873Z,14.30
2023-03-17T12:20:32.865Z,14.40
2023-03-17T12:23:06.447Z,14.50
2023-03-17T12:25:40.406Z,14.50
2023-03-17T12:28:15.809Z,14.60
2023-03-17T12:30:49.262Z,14.60
2023-03-17T12:33:25.325Z,14.70
2023-03-17T12:35:54.413Z,14.70
2023-03-17T12:38:28.682Z,14.70
2023-03-17T12:41:15.210Z,14.80
2023-03-17T12:43:56.290Z,14.80
2023-03-17T12:46:44.895Z,14.80
2023-03-17T12:49:35.087Z,14.90
2023-03-17T12:52:21.884Z,14.90
2023-03-17T12:54:52.606Z,14.90
2023-03-17T12:57:22.645Z,14.90
2023-03-17T12:59:58.377Z,14.90
2023-03-17T13:02:37.165Z,15.00
2023-03-17T13:05:09.891Z,15.00
2023-03-17T13:07:47.521Z,15.00
2023-03-17T13:10:21.993Z,15.10
2023-03-17T13:13:12.464Z,15.10
2023-03-17T13:15:56.924Z,15.20
2023-03-17T13:18:53.221Z,15.20
2023-03-17T13:21:25.000Z,15.30
2023-03-17T13:24:00.365Z,15.40
2023-03-17T13:27:00.733Z,15.40
2023-03-17T13:29:49.149Z,15.50
2023-03-17T13:32:44.310Z,15.50
2023-03-17T13:35:26.308Z,15.50
2023-03-17T13:38:28.302Z,15.60
2023-03-17T13:41:39.904Z,15.60
2023-03-17T13:44:21.551Z,15.60
2023-03-17T13:46:49.808Z,15.70
2023-03-17T13:49:24.951Z,15.70
2023-03-17T13:51:59.872Z,15.80
2023-03-17T13:54:33.782Z,15.80
2023-03-17T13:57:24.000Z,15.90
2023-03-17T14:00:01.856Z,16.00
2023-03-17T14:02:32.702Z,16.00
2023-03-17T14:05:02.709Z,16.00
2023-03-17T14:07:33.937Z,16.00
2023-03-17T14:10:05.034Z,16.10
2023-03-17T14:12:39.887Z,16.10
2023-03-17T14:15:17.281Z,16.00
2023-03-17T14:17:48.205Z,16.10
2023-03-17T14:20:24.511Z,16.10
2023-03-17T14:22:56.097Z,16.10
2023-03-17T14:25:26.031Z,16.10
2023-03-17T14:27:56.842Z,16.10
2023-03-17T14:30:28.566Z,16.10
2023-03-17T14:33:01.594Z,16.20
2023-03-17T14:35:33.980Z,16.20
2023-03-17T14:38:02.616Z,16.20
2023-03-17T14:40:36.683Z,16.20
2023-03-17T14:43:05.223Z,16.20
2023-03-17T14:45:48.575Z,16.10
2023-03-17T14:48:23.104Z,16.10
2023-03-17T14:50:53.605Z,16.10
2023-03-17T14:53:23.950Z,16.10
2023-03-17T14:55:53.315Z,16.10
2023-03-17T14:58:25.046Z,16.00
2023-03-17T15:01:03.534Z,16.00
2023-03-17T15:03:33.052Z,16.00
2023-03-17T15:06:20.983Z,16.00
2023-03-17T15:08:48.948Z,16.00
2023-03-17T15:11:23.029Z,16.00
2023-03-17T15:13:54.971Z,15.90
2023-03-17T15:16:28.104Z,15.90
2023-03-17T15:19:04.472Z,15.80
2023-03-17T15:21:36.056Z,15.80
2023-03-17T15:24:20.822Z,15.80
2023-03-17T15:26:48.549Z,15.70
2023-03-17T15:29:16.270Z,15.70
2023-03-17T15:31:45.560Z,15.60
2023-03-17T15:34:14.895Z,15.60
2023-03-17T15:36:43.414Z,15.50
2023-03-17T15:39:11.501Z,15.50
2023-03-17T15:41:39.273Z,15.50
2023-03-17T15:44:07.134Z,15.40
2023-03-17T15:46:35.066Z,15.40
2023-03-17T15:49:11.502Z,15.30
2023-03-17T15:51:39.808Z,15.20
2023-03-17T15:54:07.537Z,15.10
2023-03-17T15:56:35.468Z,15.00
2023-03-17T15:59:03.188Z,15.00
2023-03-17T16:01:31.072Z,14.90
2023-03-17T16:03:58.847Z,14.90
2023-03-17T16:06:28.092Z,14.90
2023-03-17T16:08:55.929Z,14.80
2023-03-17T16:11:28.109Z,14.70
2023-03-17T16:13:56.736Z,14.70
2023-03-17T16:16:30.787Z,14.60
2023-03-17T16:18:58.939Z,14.60
2023-03-17T16:21:30.582Z,14.50
2023-03-17T16:23:58.910Z,14.50
2023-03-17T16:26:26.693Z,14.40
2023-03-17T16:28:55.345Z,14.40
2023-03-17T16:31:25.996Z,14.40
2023-03-17T16:33:54.811Z,14.40
2023-03-17T16:36:24.184Z,14.30
2023-03-17T16:38:53.343Z,14.30
2023-03-17T16:41:23.556Z,14.20
2023-03-17T16:43:55.107Z,14.20
2023-03-17T16:46:23.124Z,14.20
2023-03-17T16:48:51.479Z,14.10
2023-03-17T16:51:19.569Z,14.10
2023-03-17T16:53:47.876Z,14.10
2023-03-17T16:56:19.414Z,14.00
2023-03-17T16:58:47.974Z,13.90
2023-03-17T17:01:19.131Z,13.90
2023-03-17T17:03:47.348Z,13.80
2023-03-17T17:06:16.157Z,13.80
2023-03-17T17:08:44.835Z,13.70
2023-03-17T17:11:13.881Z,13.70
2023-03-17T17:13:43.751Z,13.60
2023-03-17T17:16:20.283Z,13.60
2023-03-17T17:18:48.201Z,13.50
2023-03-17T17:21:16.583Z,13.50
2023-03-17T17:23:44.384Z,13.40
2023-03-17T17:26:12.105Z,13.30
2023-03-17T17:28:40.367Z,13.30
2023-03-17T17:31:10.165Z,13.30
2023-03-17T17:33:38.884Z,13.20
2023-03-17T17:36:12.551Z,13.20
2023-03-17T17:38:40.728Z,13.10
2023-03-17T17:41:10.217Z,13.10
2023-03-17T17:43:38.211Z,13.10
2023-03-17T17:46:11.706Z,13.00
2023-03-17T17:48:39.495Z,13.00
2023-03-17T17:51:07.338Z,13.00
2023-03-17T17:53:35.274Z,12.90
2023-03-17T17:56:03.379Z,12.90
2023-03-17T17:58:31.250Z,12.90
2023-03-17T18:00:59.066Z,12.80
2023-03-17T18:03:28.951Z,12.80
2023-03-17T18:05:58.970Z,12.80
2023-03-17T18:08:26.966Z,12.70
2023-03-17T18:10:55.593Z,12.70
2023-03-17T18:13:23.451Z,12.70
2023-03-17T18:15:51.730Z,12.60
2023-03-17T18:18:19.501Z,12.60
2023-03-17T18:20:48.590Z,12.60
2023-03-17T18:23:17.429Z,12.50
2023-03-17T18:25:45.147Z,12.50
2023-03-17T18:28:13.140Z,12.50
2023-03-17T18:30:41.233Z,12.50
2023-03-17T18:33:13.386Z,12.50
2023-03-17T18:35:41.485Z,12.40
2023-03-17T18:38:10.657Z,12.40
2023-03-17T18:40:38.412Z,12.40
2023-03-17T18:43:06.432Z,12.40
2023-03-17T18:45:34.199Z,12.30
2023-03-17T18:48:01.970Z,12.30
2023-03-17T18:50:30.056Z,12.30
2023-03-17T18:52:58.111Z,12.20
2023-03-17T18:55:27.218Z,12.20
2023-03-17T18:57:55.385Z,12.10
2023-03-17T19:00:25.139Z,12.10
2023-03-17T19:02:53.328Z,12.10
2023-03-17T19:05:21.367Z,12.10
2023-03-17T19:07:49.445Z,12.00
2023-03-17T19:10:17.352Z,12.00
2023-03-17T19:12:47.163Z,12.00
2023-03-17T19:15:15.477Z,12.00
2023-03-17T19:17:43.258Z,11.90
2023-03-17T19:20:13.030Z,11.90
2023-03-17T19:22:41.514Z,11.90
2023-03-17T19:25:10.398Z,11.80
2023-03-17T19:27:38.208Z,11.80
2023-03-17T19:30:08.812Z,11.70
2023-03-17T19:32:36.587Z,11.60
2023-03-17T19:35:04.588Z,11.60
2023-03-17T19:37:32.420Z,11.60
2023-03-17T19:40:00.360Z,11.50
2023-03-17T19:42:28.107Z,11.50
2023-03-17T19:44:55.932Z,11.40
2023-03-17T19:47:25.006Z,11.40
2023-03-17T19:49:52.744Z,11.30
2023-03-17T19:52:20.683Z,11.30
2023-03-17T19:54:48.759Z,11.30
2023-03-17T19:57:18.998Z,11.20
2023-03-17T19:59:47.074Z,11.20
2023-03-17T20:02:16.840Z,11.20
2023-03-17T20:04:45.993Z,11.20
2023-03-17T20:07:13.855Z,11.10
2023-03-17T20:09:42.120Z,11.10
2023-03-17T20:12:09.867Z,11.10
2023-03-17T20:14:37.674Z,11.10
2023-03-17T20:17:05.590Z,11.00
2023-03-17T20:19:33.442Z,11.10
2023-03-17T20:22:02.555Z,11.00
2023-03-17T20:24:31.363Z,11.00
2023-03-17T20:26:59.600Z,11.00
2023-03-17T20:29:28.066Z,11.00
2023-03-17T20:31:56.521Z,11.00
2023-03-17T20:34:24.680Z,11.00
2023-03-17T20:36:52.664Z,11.00
2023-03-17T20:39:21.769Z,10.90
2023-03-17T20:41:51.490Z,11.00
2023-03-17T20:44:20.184Z,10.90
2023-03-17T20:46:48.336Z,10.90
2023-03-17T20:49:17.243Z,10.90
2023-03-17T20:51:46.185Z,10.90
2023-03-17T20:54:14.273Z,10.90
2023-03-17T20:56:44.105Z,10.90
2023-03-17T20:59:13.324Z,10.90
2023-03-17T21:01:42.452Z,10.80
2023-03-17T21:04:15.536Z,10.80
2023-03-17T21:06:43.566Z,10.80
2023-03-17T21:09:11.619Z,10.70
2023-03-17T21:11:39.389Z,10.70
2023-03-17T21:14:08.986Z,10.70
2023-03-17T21:16:37.699Z,10.70
2023-03-17T21:19:08.639Z,10.60
2023-03-17T21:21:37.530Z,10.60
2023-03-17T21:24:08.241Z,10.60
2023-03-17T21:26:36.066Z,10.50
2023-03-17T21:29:03.839Z,10.50
2023-03-17T21:31:33.034Z,10.40
2023-03-17T21:34:00.829Z,10.40
2023-03-17T21:36:28.545Z,10.40
2023-03-17T21:38:56.287Z,10.30
2023-03-17T21:41:30.189Z,10.30
2023-03-17T21:43:57.924Z,10.30
2023-03-17T21:46:26.220Z,10.20
2023-03-17T21:48:55.806Z,10.20
2023-03-17T21:51:24.281Z,10.20
2023-03-17T21:53:52.802Z,10.20
2023-03-17T21:56:21.354Z,10.10
2023-03-17T21:58:49.561Z,10.10
2023-03-17T22:01:17.964Z,10.10
2023-03-17T22:03:45.912Z,10.10
2023-03-17T22:06:17.620Z,10.10
2023-03-17T22:08:47.849Z,10.00
2023-03-17T22:11:17.086Z,10.00
2023-03-17T22:13:45.726Z,10.00
2023-03-17T22:16:14.250Z,10.00
2023-03-17T22:18:42.381Z,10.00
2023-03-17T22:21:10.794Z,9.90
2023-03-17T22:23:41.508Z,9.90
2023-03-17T22:26:12.279Z,9.90
2023-03-17T22:28:40.581Z,9.90
2023-03-17T22:31:12.595Z,9.90
2023-03-17T22:33:40.509Z,9.80
2023-03-17T22:36:08.494Z,9.80
2023-03-17T22:38:36.245Z,9.80
2023-03-17T22:41:07.770Z,9.80
2023-03-17T22:43:36.047Z,9.80
2023-03-17T22:46:04.033Z,9.80
2023-03-17T22:48:32.588Z,9.80
2023-03-17T22:51:01.881Z,9.70
2023-03-17T22:53:29.789Z,9.70
2023-03-17T22:55:57.649Z,9.80
2023-03-17T22:58:27.382Z,9.70
2023-03-17T23:00:56.211Z,9.70
2023-03-17T23:03:24.755Z,9.70
2023-03-17T23:05:56.947Z,9.70
2023-03-17T23:08:24.783Z,9.70
2023-03-17T23:10:53.448Z,9.70
2023-03-17T23:13:22.238Z,9.70
2023-03-17T23:15:51.997Z,9.60
2023-03-17T23:18:20.118Z,9.70
2023-03-17T23:20:47.842Z,9.60
2023-03-17T23:23:15.857Z,9.60
2023-03-17T23:25:43.797Z,9.60
2023-03-17T23:28:12.141Z,9.60
2023-03-17T23:30:40.747Z,9.60
2023-03-17T23:33:10.406Z,9.60
2023-03-17T23:35:38.707Z,9.60
2023-03-17T23:38:06.433Z,9.60
2023-03-17T23:40:34.895Z,9.60
2023-03-17T23:43:05.340Z,9.60
2023-03-17T23:45:33.586Z,9.60
2023-03-17T23:48:01.634Z,9.60
2023-03-17T23:50:31.752Z,9.50
2023-03-17T23:52:59.842Z,9.60
2023-03-17T23:55:27.569Z,9.50
2023-03-17T23:57:55.369Z,9.50
